.
WxDataArchive / Data Records for 2016-01-12
2016-01-11 January 2016 2016-01-13

Data Records for Tuesday, 12 January 2016

Time	Temp	Chill	HIndex	Humid	Dewpt	 Wind 	HiWind	WindDir	Rain 	Barom
-----	----	-----	------	-----	-----	------	------	-------	-----	-----
00:00	24.7	24.7	24.7	89	21.9	1	5	270	0.00	29.736 
00:05	25.0	25.0	25.0	89	22.2	1	4	270	0.00	29.736 
00:10	25.3	25.3	25.3	89	22.5	1	4	270	0.00	29.736 
00:15	25.4	25.4	25.4	89	22.6	1	3	248	0.00	29.730 
00:20	25.6	25.6	25.6	89	22.8	1	5	248	0.00	29.730 
00:25	25.6	25.6	25.6	89	22.8	1	5	270	0.00	29.730 
00:30	25.7	25.7	25.7	89	22.9	1	3	68	0.00	29.723 
00:35	25.7	25.7	25.7	89	22.9	1	3	225	0.00	29.723 
00:40	25.8	25.8	25.8	89	23.0	1	4	248	0.00	29.723 
00:45	25.8	25.8	25.8	90	23.3	1	5	248	0.00	29.713 
00:50	26.0	26.0	26.0	90	23.5	1	4	248	0.00	29.713 
00:55	26.0	26.0	26.0	90	23.5	1	4	248	0.00	29.713 
01:00	26.1	26.1	26.1	90	23.6	1	3	248	0.00	29.703 
01:05	26.3	26.3	26.3	90	23.8	1	7	248	0.00	29.703 
01:10	26.4	26.4	26.4	90	23.9	1	4	248	0.00	29.703 
01:15	26.6	26.6	26.6	90	24.1	1	6	248	0.00	29.696 
01:20	26.7	26.7	26.7	90	24.2	2	5	248	0.00	29.696 
01:25	26.9	26.9	26.9	90	24.4	1	4	248	0.00	29.696 
01:30	27.0	27.0	27.0	89	24.2	2	7	248	0.00	29.682 
01:35	27.0	27.0	27.0	89	24.2	1	3	270	0.00	29.682 
01:40	27.2	27.2	27.2	89	24.4	1	3	292	0.00	29.682 
01:45	27.2	27.2	27.2	89	24.4	1	5	248	0.00	29.680 
01:50	27.2	27.2	27.2	89	24.4	1	4	248	0.00	29.680 
01:55	27.2	27.2	27.2	89	24.4	1	4	248	0.00	29.680 
02:00	27.3	27.3	27.3	89	24.5	1	4	248	0.00	29.674 
02:05	27.3	27.3	27.3	89	24.5	1	4	248	0.00	29.674 
02:10	27.5	27.5	27.5	90	25.0	0	4	248	0.00	29.674 
02:15	27.5	27.5	27.5	90	25.0	0	3	248	0.00	29.666 
02:20	27.5	27.5	27.5	90	25.0	1	5	248	0.00	29.666 
02:25	27.5	27.5	27.5	90	25.0	0	2	248	0.00	29.666 
02:30	27.5	27.5	27.5	90	25.0	0	2	202	0.00	29.664 
02:35	27.5	27.5	27.5	90	25.0	0	3	225	0.00	29.664 
02:40	27.6	27.6	27.6	90	25.1	0	2	225	0.00	29.664 
02:45	27.6	27.6	27.6	91	25.3	0	2	225	0.00	29.661 
02:50	27.6	27.6	27.6	91	25.3	1	4	225	0.00	29.661 
02:55	27.8	27.8	27.8	91	25.5	0	3	248	0.00	29.661 
03:00	27.8	27.8	27.8	91	25.5	1	3	248	0.00	29.660 
03:05	27.8	27.8	27.8	91	25.5	1	3	248	0.00	29.660 
03:10	27.8	27.8	27.8	91	25.5	0	3	248	0.00	29.660 
03:15	27.8	27.8	27.8	91	25.5	0	2	248	0.00	29.663 
03:20	27.9	27.9	27.9	91	25.6	1	4	248	0.00	29.663 
03:25	27.9	27.9	27.9	91	25.6	1	5	270	0.00	29.663 
03:30	27.9	27.9	27.9	91	25.6	1	3	270	0.00	29.662 
03:35	27.9	27.9	27.9	91	25.6	1	3	270	0.00	29.662 
03:40	27.8	27.8	27.8	91	25.5	2	5	270	0.00	29.662 
03:45	27.8	27.8	27.8	91	25.5	2	4	270	0.00	29.663 
03:50	27.6	27.6	27.6	91	25.3	1	3	270	0.00	29.663 
03:55	27.5	27.5	27.5	91	25.2	1	3	270	0.00	29.663 
04:00	27.2	27.2	27.2	90	24.7	1	4	270	0.00	29.665 
04:05	27.0	27.0	27.0	90	24.5	1	4	270	0.00	29.665 
04:10	26.9	26.9	26.9	90	24.4	2	4	270	0.00	29.665 
04:15	26.7	26.7	26.7	89	23.9	2	4	270	0.00	29.664 
04:20	26.4	26.4	26.4	88	23.3	3	6	248	0.00	29.664 
04:25	26.3	21.5	26.3	87	23.0	4	7	270	0.00	29.664 
04:30	26.1	26.1	26.1	86	22.5	3	6	270	0.00	29.668 
04:35	25.8	20.9	25.8	85	21.9	4	10	270	0.00	29.668 
04:40	25.6	25.6	25.6	84	21.5	3	7	270	0.00	29.668 
04:45	25.4	25.4	25.4	83	21.0	2	6	270	0.00	29.667 
04:50	25.4	25.4	25.4	83	21.0	2	5	270	0.00	29.667 
04:55	25.4	25.4	25.4	82	20.7	2	6	270	0.00	29.667 
05:00	25.3	25.3	25.3	81	20.3	3	7	248	0.00	29.667 
05:05	25.1	20.1	25.1	80	19.8	4	10	270	0.00	29.667 
05:10	25.0	25.0	25.0	80	19.7	3	7	248	0.00	29.667 
05:15	24.8	19.8	24.8	80	19.5	4	6	248	0.00	29.671 
05:20	24.8	24.8	24.8	81	19.8	3	5	270	0.00	29.671 
05:25	24.7	24.7	24.7	81	19.7	3	6	270	0.00	29.671 
05:30	24.5	24.5	24.5	82	19.8	3	7	270	0.00	29.685 
05:35	24.1	24.1	24.1	81	19.1	3	9	270	0.00	29.685 
05:40	23.5	23.5	23.5	80	18.3	3	6	248	0.00	29.685 
05:45	23.2	23.2	23.2	77	17.1	3	6	248	0.00	29.698 
05:50	23.0	23.0	23.0	75	16.3	3	6	270	0.00	29.698 
05:55	22.5	17.1	22.5	72	14.9	4	7	270	0.00	29.698 
06:00	21.9	15.2	21.9	71	14.0	5	9	270	0.00	29.706 
06:05	21.8	21.8	21.8	71	13.9	3	6	270	0.00	29.706 
06:10	21.6	21.6	21.6	71	13.7	3	6	270	0.00	29.706 
06:15	21.4	21.4	21.4	72	13.8	2	4	248	0.00	29.713 
06:20	21.3	21.3	21.3	72	13.7	2	5	270	0.00	29.713 
06:25	21.1	21.1	21.1	73	13.8	2	7	248	0.00	29.713 
06:30	21.0	21.0	21.0	73	13.7	2	6	270	0.00	29.716 
06:35	20.8	20.8	20.8	74	13.8	2	5	270	0.00	29.716 
06:40	20.6	20.6	20.6	74	13.7	2	4	270	0.00	29.716 
06:45	20.5	20.5	20.5	75	13.9	2	5	270	0.00	29.731 
06:50	20.3	20.3	20.3	75	13.7	2	7	248	0.00	29.731 
06:55	20.2	20.2	20.2	76	13.9	2	4	248	0.00	29.731 
07:00	19.9	19.9	19.9	77	13.9	3	6	270	0.00	29.728 
07:05	19.7	19.7	19.7	77	13.7	2	5	270	0.00	29.728 
07:10	19.5	19.5	19.5	78	13.8	1	3	270	0.00	29.728 
07:15	19.4	19.4	19.4	79	14.0	1	3	270	0.00	29.728 
07:20	19.4	19.4	19.4	79	14.0	1	2	270	0.00	29.728 
07:25	19.4	19.4	19.4	79	14.0	0	2	270	0.00	29.728 
07:30	19.5	19.5	19.5	80	14.4	1	3	270	0.00	29.733 
07:35	19.5	19.5	19.5	80	14.4	1	4	270	0.00	29.733 
07:40	19.5	19.5	19.5	80	14.4	1	4	270	0.00	29.733 
07:45	19.5	19.5	19.5	79	14.1	1	2	248	0.00	29.730 
07:50	19.4	19.4	19.4	79	14.0	2	4	248	0.00	29.730 
07:55	19.4	19.4	19.4	77	13.4	1	4	270	0.00	29.730 
08:00	19.4	19.4	19.4	77	13.4	2	5	292	0.00	29.734 
08:05	19.4	19.4	19.4	77	13.4	2	4	292	0.00	29.734 
08:10	19.4	19.4	19.4	76	13.1	1	4	292	0.00	29.734 
08:15	19.4	19.4	19.4	76	13.1	2	7	270	0.00	29.734 
08:20	19.2	19.2	19.2	76	12.9	1	3	270	0.00	29.734 
08:25	19.2	19.2	19.2	76	12.9	1	3	270	0.00	29.734 
08:30	19.2	19.2	19.2	76	12.9	2	5	270	0.00	29.736 
08:35	19.2	19.2	19.2	77	13.2	2	4	270	0.00	29.736 
08:40	19.2	19.2	19.2	77	13.2	2	5	270	0.00	29.736 
08:45	19.1	19.1	19.1	78	13.4	2	3	270	0.00	29.744 
08:50	19.1	19.1	19.1	78	13.4	2	3	270	0.00	29.744 
08:55	18.9	18.9	18.9	79	13.5	2	3	270	0.00	29.744 
09:00	18.9	18.9	18.9	79	13.5	3	5	270	0.00	29.750 
09:05	18.9	18.9	18.9	79	13.5	2	4	270	0.00	29.750 
09:10	18.9	18.9	18.9	80	13.8	2	4	270	0.00	29.750 
09:15	18.9	18.9	18.9	80	13.8	2	4	270	0.00	29.754 
09:20	18.9	18.9	18.9	81	14.1	2	4	270	0.00	29.754 
09:25	18.8	18.8	18.8	81	14.0	3	7	270	0.00	29.754 
09:30	18.4	12.4	18.4	80	13.3	4	8	292	0.00	29.765 
09:35	18.3	18.3	18.3	79	12.9	3	6	270	0.00	29.765 
09:40	18.1	12.0	18.1	77	12.1	4	7	270	0.00	29.765 
09:45	18.0	18.0	18.0	76	11.7	3	9	270	0.00	29.769 
09:50	18.1	18.1	18.1	77	12.1	3	6	270	0.00	29.769 
09:55	18.1	18.1	18.1	77	12.1	3	6	270	0.00	29.769 
10:00	18.3	18.3	18.3	77	12.3	2	5	270	0.00	29.780 
10:05	18.4	18.4	18.4	77	12.4	2	6	292	0.00	29.780 
10:10	18.6	18.6	18.6	77	12.6	2	4	292	0.00	29.780 
10:15	18.6	18.6	18.6	77	12.6	3	5	248	0.00	29.791 
10:20	18.3	18.3	18.3	74	11.4	3	7	270	0.00	29.791 
10:25	18.4	18.4	18.4	73	11.2	3	7	292	0.00	29.791 
10:30	18.1	12.0	18.1	73	10.9	4	9	270	0.00	29.802 
10:35	18.1	18.1	18.1	72	10.6	3	7	270	0.00	29.802 
10:40	18.1	12.0	18.1	70	10.0	4	9	270	0.00	29.802 
10:45	18.0	11.9	18.0	68	9.2	4	12	270	0.00	29.813 
10:50	17.5	11.3	17.5	67	8.4	4	9	270	0.00	29.813 
10:55	17.3	9.8	17.3	70	9.2	5	11	315	0.00	29.813 
11:00	16.5	10.2	16.5	71	8.8	4	10	292	0.00	29.829 
11:05	16.2	16.2	16.2	70	8.2	3	6	270	0.00	29.829 
11:10	16.2	9.8	16.2	68	7.5	4	13	315	0.00	29.829 
11:15	16.4	10.1	16.4	65	6.7	4	10	292	0.00	29.837 
11:20	16.2	8.5	16.2	65	6.5	5	11	270	0.00	29.837 
11:25	16.2	9.8	16.2	65	6.5	4	8	270	0.00	29.837 
11:30	16.5	16.5	16.5	65	6.8	3	5	270	0.00	29.840 
11:35	16.5	10.2	16.5	65	6.8	4	7	270	0.00	29.840 
11:40	16.5	8.9	16.5	61	5.4	5	8	270	0.00	29.840 
11:45	16.5	8.9	16.5	59	4.7	5	12	270	0.00	29.851 
11:50	16.5	8.9	16.5	58	4.3	5	7	270	0.00	29.851 
11:55	16.1	8.4	16.1	58	4.0	5	10	270	0.00	29.851 
12:00	15.7	7.9	15.7	58	3.6	5	10	270	0.00	29.862 
12:05	15.4	8.9	15.4	59	3.7	4	9	270	0.00	29.862 
12:10	15.2	7.3	15.2	59	3.5	5	12	270	0.00	29.862 
12:15	15.2	7.3	15.2	60	3.8	5	12	292	0.00	29.863 
12:20	15.2	7.3	15.2	61	4.2	5	12	315	0.00	29.863 
12:25	15.4	7.6	15.4	61	4.4	5	11	270	0.00	29.863 
12:30	15.6	9.1	15.6	62	4.9	4	6	270	0.00	29.866 
12:35	16.1	16.1	16.1	63	5.8	3	6	292	0.00	29.866 
12:40	15.9	9.5	15.9	63	5.6	4	9	270	0.00	29.866 
12:45	15.7	15.7	15.7	63	5.4	3	6	270	0.00	29.871 
12:50	15.7	9.2	15.7	62	5.0	4	6	270	0.00	29.871 
12:55	15.9	9.5	15.9	62	5.2	4	6	270	0.00	29.871 
13:00	15.7	7.9	15.7	61	4.7	5	12	270	0.00	29.882 
13:05	15.6	9.1	15.6	61	4.6	4	11	270	0.00	29.882 
13:10	15.6	9.1	15.6	60	4.2	4	9	270	0.00	29.882 
13:15	15.6	9.1	15.6	60	4.2	4	10	315	0.00	29.886 
13:20	15.6	9.1	15.6	59	3.9	4	11	270	0.00	29.886 
13:25	15.7	9.2	15.7	62	5.0	4	6	270	0.00	29.886 
13:30	16.1	9.7	16.1	63	5.8	4	7	270	0.00	29.888 
13:35	15.9	15.9	15.9	64	5.9	3	9	270	0.00	29.888 
13:40	15.9	9.5	15.9	64	5.9	4	7	270	0.00	29.888 
13:45	16.2	16.2	16.2	65	6.5	3	6	270	0.00	29.899 
13:50	15.9	9.5	15.9	64	5.9	4	10	270	0.00	29.899 
13:55	15.6	9.1	15.6	63	5.3	4	10	270	0.00	29.899 
14:00	15.2	8.7	15.2	63	4.9	4	7	270	0.00	29.908 
14:05	15.2	7.3	15.2	63	4.9	5	10	270	0.00	29.908 
14:10	15.1	8.6	15.1	63	4.8	4	10	270	0.00	29.908 
14:15	15.1	8.6	15.1	63	4.8	4	9	270	0.00	29.920 
14:20	14.9	7.0	14.9	62	4.3	5	9	270	0.00	29.920 
14:25	14.8	6.9	14.8	63	4.5	5	10	270	0.00	29.920 
14:30	14.8	8.2	14.8	63	4.5	4	11	270	0.00	29.930 
14:35	14.6	8.0	14.6	63	4.3	4	11	270	0.00	29.930 
14:40	14.6	14.6	14.6	63	4.3	3	7	292	0.00	29.930 
14:45	14.6	8.0	14.6	63	4.3	4	8	292	0.00	29.939 
14:50	14.4	6.4	14.4	62	3.8	5	10	270	0.00	29.939 
14:55	14.3	6.3	14.3	62	3.7	5	9	270	0.00	29.939 
15:00	14.3	7.6	14.3	62	3.7	4	9	270	0.00	29.951 
15:05	14.3	14.3	14.3	62	3.7	3	6	292	0.00	29.951 
15:10	14.4	14.4	14.4	62	3.8	3	6	270	0.00	29.951 
15:15	14.6	14.6	14.6	62	4.0	3	9	270	0.00	29.966 
15:20	14.4	7.7	14.4	61	3.4	4	9	270	0.00	29.966 
15:25	14.3	7.6	14.3	61	3.3	4	11	270	0.00	29.966 
15:30	14.3	14.3	14.3	61	3.3	3	7	270	0.00	29.979 
15:35	14.4	7.7	14.4	61	3.4	4	7	270	0.00	29.979 
15:40	14.1	7.4	14.1	61	3.2	4	9	270	0.00	29.979 
15:45	14.1	14.1	14.1	61	3.2	3	6	270	0.00	29.985 
15:50	14.3	14.3	14.3	61	3.3	3	6	270	0.00	29.985 
15:55	14.3	14.3	14.3	61	3.3	3	10	270	0.00	29.985 
16:00	14.1	7.4	14.1	60	2.8	4	6	292	0.00	29.995 
16:05	14.0	7.3	14.0	60	2.7	4	9	292	0.00	29.995 
16:10	14.0	7.3	14.0	59	2.3	4	7	270	0.00	29.995 
16:15	13.8	7.1	13.8	59	2.2	4	7	270	0.00	30.002 
16:20	13.6	13.6	13.6	60	2.3	3	6	270	0.00	30.002 
16:25	13.8	13.8	13.8	60	2.5	2	4	270	0.00	30.002 
16:30	13.8	13.8	13.8	60	2.5	1	5	270	0.00	30.015 
16:35	13.6	13.6	13.6	60	2.3	3	6	270	0.00	30.015 
16:40	13.5	13.5	13.5	60	2.2	2	5	270	0.00	30.015 
16:45	13.3	13.3	13.3	60	2.0	3	6	270	0.00	30.023 
16:50	13.1	13.1	13.1	61	2.2	2	6	270	0.00	30.023 
16:55	12.9	12.9	12.9	61	2.0	2	4	248	0.00	30.023 
17:00	12.9	12.9	12.9	61	2.0	1	3	248	0.00	30.034 
17:05	12.6	12.6	12.6	61	1.7	2	4	248	0.00	30.034 
17:10	12.3	12.3	12.3	62	1.8	2	4	248	0.00	30.034 
17:15	11.9	11.9	11.9	63	1.8	1	5	248	0.00	30.050 
17:20	11.6	11.6	11.6	63	1.5	1	4	248	0.00	30.050 
17:25	11.4	11.4	11.4	64	1.6	1	3	248	0.00	30.050 
17:30	11.2	11.2	11.2	65	1.8	1	3	248	0.00	30.067 
17:35	11.2	11.2	11.2	65	1.8	1	4	248	0.00	30.067 
17:40	11.1	11.1	11.1	65	1.7	1	4	248	0.00	30.067 
17:45	11.1	11.1	11.1	66	2.0	1	4	248	0.00	30.071 
17:50	11.1	11.1	11.1	66	2.0	1	3	248	0.00	30.071 
17:55	11.1	11.1	11.1	67	2.3	1	4	248	0.00	30.071 
18:00	11.2	11.2	11.2	68	2.7	1	7	248	0.00	30.085 
18:05	11.6	11.6	11.6	68	3.1	2	5	248	0.00	30.085 
18:10	11.7	11.7	11.7	67	2.9	1	4	248	0.00	30.085 
18:15	11.9	11.9	11.9	67	3.1	2	6	248	0.00	30.093 
18:20	11.9	11.9	11.9	67	3.1	1	4	248	0.00	30.093 
18:25	11.9	11.9	11.9	66	2.8	2	4	248	0.00	30.093 
18:30	11.7	11.7	11.7	66	2.6	2	9	270	0.00	30.104 
18:35	11.6	11.6	11.6	66	2.5	2	4	248	0.00	30.104 
18:40	11.6	11.6	11.6	66	2.5	2	6	248	0.00	30.104 
18:45	11.4	11.4	11.4	67	2.6	2	6	248	0.00	30.116 
18:50	11.2	11.2	11.2	67	2.4	3	7	248	0.00	30.116 
18:55	11.2	11.2	11.2	67	2.4	2	6	248	0.00	30.116 
19:00	11.1	11.1	11.1	67	2.3	2	4	248	0.00	30.120 
19:05	11.1	11.1	11.1	68	2.6	2	4	248	0.00	30.120 
19:10	11.1	11.1	11.1	68	2.6	2	6	248	0.00	30.120 
19:15	11.1	11.1	11.1	68	2.6	3	5	248	0.00	30.127 
19:20	11.1	11.1	11.1	67	2.3	2	7	248	0.00	30.127 
19:25	10.9	10.9	10.9	67	2.1	2	4	248	0.00	30.127 
19:30	10.9	10.9	10.9	67	2.1	2	6	248	0.00	30.130 
19:35	10.9	10.9	10.9	67	2.1	2	7	292	0.00	30.130 
19:40	10.7	10.7	10.7	66	1.6	2	6	270	0.00	30.130 
19:45	10.5	10.5	10.5	66	1.4	2	5	248	0.00	30.130 
19:50	10.5	10.5	10.5	66	1.4	2	5	292	0.00	30.130 
19:55	10.5	10.5	10.5	66	1.4	1	4	270	0.00	30.130 
20:00	10.4	10.4	10.4	66	1.3	2	5	270	0.00	30.135 
20:05	10.5	10.5	10.5	66	1.4	1	4	248	0.00	30.135 
20:10	10.5	10.5	10.5	67	1.7	2	5	248	0.00	30.135 
20:15	10.5	10.5	10.5	66	1.4	2	5	270	0.00	30.142 
20:20	10.5	10.5	10.5	66	1.4	2	5	270	0.00	30.142 
20:25	10.4	10.4	10.4	67	1.6	2	6	270	0.00	30.142 
20:30	10.4	10.4	10.4	67	1.6	1	5	270	0.00	30.150 
20:35	10.4	10.4	10.4	67	1.6	1	6	270	0.00	30.150 
20:40	10.2	10.2	10.2	68	1.8	2	4	248	0.00	30.150 
20:45	10.0	10.0	10.0	68	1.6	1	6	248	0.00	30.149 
20:50	9.9	9.9	9.9	68	1.5	2	7	270	0.00	30.149 
20:55	9.7	9.7	9.7	69	1.6	1	3	270	0.00	30.149 
21:00	9.5	9.5	9.5	69	1.4	1	3	270	0.00	30.144 
21:05	9.2	9.2	9.2	69	1.1	1	3	270	0.00	30.144 
21:10	9.0	9.0	9.0	70	1.2	1	3	270	0.00	30.144 
21:15	8.8	8.8	8.8	70	1.0	1	3	270	0.00	30.153 
21:20	8.6	8.6	8.6	71	1.2	1	4	270	0.00	30.153 
21:25	8.6	8.6	8.6	71	1.2	1	3	270	0.00	30.153 
21:30	8.4	8.4	8.4	71	1.0	2	4	270	0.00	30.152 
21:35	8.3	8.3	8.3	72	1.2	1	4	270	0.00	30.152 
21:40	8.3	8.3	8.3	72	1.2	1	4	270	0.00	30.152 
21:45	8.1	8.1	8.1	72	1.0	1	4	270	0.00	30.155 
21:50	7.9	7.9	7.9	73	1.1	1	2	270	0.00	30.155 
21:55	7.9	7.9	7.9	73	1.1	1	4	270	0.00	30.155 
22:00	7.7	7.7	7.7	73	0.9	0	3	270	0.00	30.155 
22:05	7.7	7.7	7.7	73	0.9	0	2	270	0.00	30.155 
22:10	7.6	7.6	7.6	73	0.8	0	1	270	0.00	30.155 
22:15	7.6	7.6	7.6	73	0.8	1	4	270	0.00	30.157 
22:20	7.6	7.6	7.6	73	0.8	0	2	270	0.00	30.157 
22:25	7.4	7.4	7.4	73	0.6	0	2	270	0.00	30.157 
22:30	7.4	7.4	7.4	73	0.6	1	3	270	0.00	30.163 
22:35	7.6	7.6	7.6	73	0.8	0	1	270	0.00	30.163 
22:40	7.6	7.6	7.6	73	0.8	0	1	270	0.00	30.163 
22:45	7.6	7.6	7.6	73	0.8	0	2	270	0.00	30.163 
22:50	7.6	7.6	7.6	73	0.8	0	3	270	0.00	30.163 
22:55	7.6	7.6	7.6	73	0.8	1	2	270	0.00	30.163 
23:00	7.6	7.6	7.6	73	0.8	0	2	270	0.00	30.165 
23:05	7.6	7.6	7.6	73	0.8	0	3	270	0.00	30.165 
23:10	7.4	7.4	7.4	72	0.3	1	4	270	0.00	30.165 
23:15	7.4	7.4	7.4	72	0.3	1	4	248	0.00	30.168 
23:20	7.4	7.4	7.4	72	0.3	0	2	248	0.00	30.168 
23:25	7.2	7.2	7.2	72	0.1	1	3	248	0.00	30.168 
23:30	7.2	7.2	7.2	72	0.1	1	3	248	0.00	30.174 
23:35	7.2	7.2	7.2	72	0.1	0	2	248	0.00	30.174 
23:40	7.2	7.2	7.2	72	0.1	0	3	248	0.00	30.174 
23:45	7.0	7.0	7.0	72	-0.1	1	4	248	0.00	30.174 
23:50	7.0	7.0	7.0	72	-0.1	0	2	248	0.00	30.174 
23:55	7.0	7.0	7.0	72	-0.1	1	2	248	0.00	30.174 

CoCoRaHS
IN-AL-39
A2 Web Hosting
Creative Commons License
GoDaddy
search engine by freefind advanced

loaded 2018-11-20 14:31:43 • last modified 2010-11-18 10:43:29
Privacy PolicyDisclaimer
• wx.awcolley.com is powered by PmWiki v.2002016 •
• all content (unless otherwise noted) © 2018 A W Colley